createdAt,value
2023-05-06T00:04:33.745Z,100415.81
2023-05-06T00:09:36.102Z,100447.56
2023-05-06T00:14:38.465Z,100414.88
2023-05-06T00:19:40.878Z,100454.50
2023-05-06T00:24:43.169Z,100483.91
2023-05-06T00:29:45.405Z,100475.03
2023-05-06T00:34:48.169Z,100468.69
2023-05-06T00:39:50.369Z,100478.69
2023-05-06T00:44:53.068Z,100421.03
2023-05-06T00:49:55.400Z,100476.22
2023-05-06T00:54:57.947Z,100481.19
2023-05-06T01:00:00.252Z,100462.88
2023-05-06T01:05:03.785Z,100471.41
2023-05-06T01:10:14.175Z,100458.53
2023-05-06T01:15:22.559Z,100495.44
2023-05-06T01:20:27.312Z,100485.31
2023-05-06T01:25:30.691Z,100438.53
2023-05-06T01:30:39.408Z,100412.13
2023-05-06T01:35:55.302Z,100428.03
2023-05-06T01:40:58.980Z,100401.38
2023-05-06T01:46:02.002Z,100397.81
2023-05-06T01:51:04.765Z,100399.00
2023-05-06T01:56:07.721Z,100439.13
2023-05-06T02:01:10.224Z,100438.50
2023-05-06T02:06:12.701Z,100455.97
2023-05-06T02:11:15.121Z,100460.31
2023-05-06T02:16:17.396Z,100431.66
2023-05-06T02:21:19.688Z,100444.31
2023-05-06T02:26:21.914Z,100449.75
2023-05-06T02:31:24.319Z,100393.78
2023-05-06T02:36:27.005Z,100387.72
2023-05-06T02:41:29.352Z,100403.19
2023-05-06T02:46:31.639Z,100401.63
2023-05-06T02:51:33.970Z,100392.31
2023-05-06T02:56:36.354Z,100359.56
2023-05-06T03:01:38.807Z,100454.34
2023-05-06T03:06:41.033Z,100438.78
2023-05-06T03:11:43.487Z,100444.44
2023-05-06T03:16:45.764Z,100455.09
2023-05-06T03:21:48.652Z,100442.09
2023-05-06T03:26:51.209Z,100437.59
2023-05-06T03:31:56.928Z,100389.31
2023-05-06T03:36:59.282Z,100446.41
2023-05-06T03:42:01.507Z,100445.81
2023-05-06T03:47:03.719Z,100481.22
2023-05-06T03:52:06.303Z,100448.00
2023-05-06T03:57:08.514Z,100465.91
2023-05-06T04:02:10.794Z,100456.19
2023-05-06T04:07:13.105Z,100487.97
2023-05-06T04:12:15.455Z,100512.41
2023-05-06T04:17:17.783Z,100510.53
2023-05-06T04:22:20.527Z,100460.38
2023-05-06T04:27:22.939Z,100464.97
2023-05-06T04:32:28.011Z,100519.63
2023-05-06T04:37:31.221Z,100515.38
2023-05-06T04:42:33.922Z,100522.16
2023-05-06T04:47:36.345Z,100525.13
2023-05-06T04:52:38.907Z,100511.34
2023-05-06T04:57:41.166Z,100517.97
2023-05-06T05:02:43.325Z,100532.50
2023-05-06T05:07:45.864Z,100527.66
2023-05-06T05:12:48.053Z,100542.09
2023-05-06T05:17:51.502Z,100540.22
2023-05-06T05:22:53.600Z,100508.63
2023-05-06T05:27:55.733Z,100536.34
2023-05-06T05:32:58.205Z,100529.19
2023-05-06T05:38:00.503Z,100522.72
2023-05-06T05:43:02.684Z,100551.75
2023-05-06T05:48:05.299Z,100546.16
2023-05-06T05:53:07.483Z,100555.03
2023-05-06T05:58:11.967Z,100560.22
2023-05-06T06:03:14.241Z,100573.69
2023-05-06T06:08:19.178Z,100581.28
2023-05-06T06:13:22.228Z,100579.97
2023-05-06T06:18:24.780Z,100577.63
2023-05-06T06:23:27.224Z,100572.44
2023-05-06T06:28:29.438Z,100580.34
2023-05-06T06:33:31.897Z,100582.69
2023-05-06T06:38:34.665Z,100576.44
2023-05-06T06:43:38.864Z,100579.53
2023-05-06T06:48:40.995Z,100569.63
2023-05-06T06:53:43.528Z,100569.13
2023-05-06T06:58:45.820Z,100560.25
2023-05-06T07:03:48.057Z,100494.84
2023-05-06T07:08:50.568Z,100521.63
2023-05-06T07:13:52.763Z,100504.53
2023-05-06T07:18:55.026Z,100546.22
2023-05-06T07:23:57.372Z,100551.66
2023-05-06T07:28:59.530Z,100551.06
2023-05-06T07:34:01.963Z,100576.25
2023-05-06T07:39:04.464Z,100594.69
2023-05-06T07:44:07.215Z,100598.59
2023-05-06T07:49:09.450Z,100544.22
2023-05-06T07:54:11.866Z,100522.66
2023-05-06T07:59:15.280Z,100594.19
2023-05-06T08:09:22.957Z,100516.41
2023-05-06T08:14:29.700Z,100570.44
2023-05-06T08:19:32.025Z,100509.47
2023-05-06T08:24:34.273Z,100568.63
2023-05-06T08:29:36.827Z,100571.59
2023-05-06T08:34:38.929Z,100579.41
2023-05-06T08:39:42.005Z,100593.63
2023-05-06T08:44:45.052Z,100569.59
2023-05-06T08:49:47.920Z,100596.41
2023-05-06T08:54:54.965Z,100520.19
2023-05-06T08:59:57.340Z,100601.63
2023-05-06T09:05:00.719Z,100569.66
2023-05-06T09:10:15.599Z,100599.50
2023-05-06T09:15:17.997Z,100574.28
2023-05-06T09:20:20.526Z,100575.50
2023-05-06T09:25:22.909Z,100587.84
2023-05-06T09:30:25.086Z,100594.31
2023-05-06T09:35:36.935Z,100584.63
2023-05-06T09:40:39.741Z,100591.25
2023-05-06T09:45:42.440Z,100600.91
2023-05-06T09:50:44.888Z,100569.53
2023-05-06T09:55:47.738Z,100594.00
2023-05-06T10:00:52.623Z,100572.94
2023-05-06T10:05:57.832Z,100596.63
2023-05-06T10:11:02.090Z,100522.84
2023-05-06T10:16:07.189Z,100582.84
2023-05-06T10:21:17.790Z,100548.63
2023-05-06T10:26:22.410Z,100551.28
2023-05-06T10:31:53.439Z,100572.69
2023-05-06T10:36:58.289Z,100573.66
2023-05-06T10:42:00.668Z,100539.19
2023-05-06T10:47:02.948Z,100558.94
2023-05-06T10:52:14.253Z,100549.38
2023-05-06T10:57:16.733Z,100568.03
2023-05-06T11:02:20.945Z,100571.56
2023-05-06T11:07:24.811Z,100561.69
2023-05-06T11:12:47.041Z,100566.69
2023-05-06T11:17:49.486Z,100567.75
2023-05-06T11:22:52.864Z,100571.59
2023-05-06T11:27:56.697Z,100574.34
2023-05-06T11:33:05.559Z,100565.56
2023-05-06T11:38:08.118Z,100562.56
2023-05-06T11:43:14.587Z,100563.88
2023-05-06T11:48:18.681Z,100564.03
2023-05-06T11:53:23.594Z,100560.66
2023-05-06T11:58:28.098Z,100559.09
2023-05-06T12:03:32.794Z,100567.13
2023-05-06T12:08:37.455Z,100576.34
2023-05-06T12:13:41.081Z,100521.41
2023-05-06T12:18:45.211Z,100512.47
2023-05-06T12:23:52.800Z,100558.78
2023-05-06T12:29:12.345Z,100559.31
2023-05-06T12:34:16.680Z,100551.91
2023-05-06T12:39:18.903Z,100554.59
2023-05-06T12:44:35.296Z,100526.59
2023-05-06T12:49:51.380Z,100550.69
2023-05-06T12:54:53.821Z,100524.94
2023-05-06T12:59:56.710Z,100515.25
2023-05-06T13:04:58.947Z,100519.13
2023-05-06T13:10:01.448Z,100528.63
2023-05-06T13:15:05.606Z,100512.69
2023-05-06T13:20:08.587Z,100527.69
2023-05-06T13:25:11.891Z,100525.03
2023-05-06T13:30:14.339Z,100508.00
2023-05-06T13:35:16.744Z,100506.44
2023-05-06T13:40:19.026Z,100523.78
2023-05-06T13:45:21.293Z,100514.41
2023-05-06T13:50:23.556Z,100507.63
2023-05-06T13:55:25.890Z,100500.69
2023-05-06T14:00:28.274Z,100492.31
2023-05-06T14:05:30.902Z,100524.25
2023-05-06T14:10:33.142Z,100513.50
2023-05-06T14:15:35.555Z,100505.69
2023-05-06T14:20:37.773Z,100502.50
2023-05-06T14:25:40.602Z,100517.94
2023-05-06T14:30:43.060Z,100512.22
2023-05-06T14:35:46.568Z,100525.09
2023-05-06T14:40:48.807Z,100489.75
2023-05-06T14:45:51.160Z,100473.59
2023-05-06T14:50:53.580Z,100471.81
2023-05-06T14:55:56.840Z,100510.41
2023-05-06T15:00:59.104Z,100508.31
2023-05-06T15:06:01.433Z,100506.19
2023-05-06T15:11:04.462Z,100507.03
2023-05-06T15:16:10.519Z,100507.91
2023-05-06T15:21:13.893Z,100495.66
2023-05-06T15:26:16.559Z,100454.63
2023-05-06T15:31:19.136Z,100506.47
2023-05-06T15:36:21.402Z,100498.53
2023-05-06T15:41:27.176Z,100507.84
2023-05-06T15:57:23.019Z,100483.03
2023-05-06T16:08:43.639Z,100499.66
2023-05-06T16:13:46.793Z,100505.16
2023-05-06T16:18:49.830Z,100493.63
2023-05-06T16:23:52.132Z,100509.75
2023-05-06T16:28:54.575Z,100462.63
2023-05-06T16:33:56.957Z,100500.50
2023-05-06T16:38:59.176Z,100484.75
2023-05-06T16:44:02.510Z,100514.13
2023-05-06T16:49:05.179Z,100463.34
2023-05-06T16:54:07.523Z,100524.94
2023-05-06T16:59:09.710Z,100500.63
2023-05-06T17:04:12.009Z,100513.47
2023-05-06T17:09:14.586Z,100512.44
2023-05-06T17:14:17.156Z,100482.03
2023-05-06T17:19:19.475Z,100536.25
2023-05-06T17:24:22.135Z,100501.16
2023-05-06T17:29:24.560Z,100560.03
2023-05-06T17:34:27.147Z,100540.81
2023-05-06T17:39:29.422Z,100500.75
2023-05-06T17:44:32.105Z,100558.25
2023-05-06T17:49:34.907Z,100566.13
2023-05-06T17:54:38.617Z,100565.75
2023-05-06T17:59:40.847Z,100586.31
2023-05-06T18:04:44.996Z,100586.38
2023-05-06T18:09:52.260Z,100578.00
2023-05-06T18:14:55.757Z,100603.69
2023-05-06T18:19:58.087Z,100590.50
2023-05-06T18:25:00.364Z,100605.50
2023-05-06T18:30:03.339Z,100618.63
2023-05-06T18:35:05.904Z,100615.22
2023-05-06T18:40:11.728Z,100612.13
2023-05-06T18:45:13.988Z,100572.28
2023-05-06T18:50:16.612Z,100620.78
2023-05-06T18:55:18.898Z,100626.44
2023-05-06T19:00:24.673Z,100630.47
2023-05-06T19:05:27.004Z,100608.84
2023-05-06T19:10:29.340Z,100586.69
2023-05-06T19:15:32.203Z,100631.72
2023-05-06T19:20:34.902Z,100593.94
2023-05-06T19:25:39.156Z,100594.00
2023-05-06T19:30:41.563Z,100635.59
2023-05-06T19:35:43.937Z,100640.47
2023-05-06T19:40:46.196Z,100623.75
2023-05-06T19:45:48.488Z,100651.91
2023-05-06T19:50:52.004Z,100646.56
2023-05-06T19:55:56.505Z,100651.94
2023-05-06T20:00:58.978Z,100614.94
2023-05-06T20:06:01.832Z,100667.03
2023-05-06T20:11:04.098Z,100658.50
2023-05-06T20:16:07.174Z,100651.13
2023-05-06T20:21:09.551Z,100668.56
2023-05-06T20:26:11.931Z,100666.78
2023-05-06T20:31:14.162Z,100640.38
2023-05-06T20:36:17.231Z,100650.53
2023-05-06T20:41:19.499Z,100654.97
2023-05-06T20:46:22.001Z,100685.06
2023-05-06T20:51:24.376Z,100684.00
2023-05-06T20:56:27.247Z,100672.84
2023-05-06T21:01:29.871Z,100675.41
2023-05-06T21:06:33.216Z,100633.13
2023-05-06T21:11:35.658Z,100676.88
2023-05-06T21:16:40.105Z,100672.88
2023-05-06T21:21:42.432Z,100661.09
2023-05-06T21:26:44.711Z,100684.72
2023-05-06T21:31:46.929Z,100681.78
2023-05-06T21:36:49.187Z,100681.78
2023-05-06T21:41:51.461Z,100663.38
2023-05-06T21:46:53.823Z,100684.91
2023-05-06T21:51:56.672Z,100674.13
2023-05-06T21:56:58.869Z,100694.25
2023-05-06T22:02:01.495Z,100657.25
2023-05-06T22:07:04.170Z,100709.84
2023-05-06T22:12:09.306Z,100730.03
2023-05-06T22:17:12.793Z,100718.75
2023-05-06T22:22:15.040Z,100717.69
2023-05-06T22:27:17.260Z,100719.41
2023-05-06T22:32:21.914Z,100715.56
2023-05-06T22:37:30.027Z,100731.28
2023-05-06T22:42:32.301Z,100712.34
2023-05-06T22:47:34.612Z,100719.81
2023-05-06T22:52:37.185Z,100721.59
2023-05-06T22:57:39.496Z,100733.78
2023-05-06T23:02:41.814Z,100727.63
2023-05-06T23:07:44.074Z,100721.44
2023-05-06T23:12:47.928Z,100731.25
2023-05-06T23:17:50.255Z,100630.25
2023-05-06T23:22:55.917Z,100674.94
2023-05-06T23:27:58.156Z,100666.19
2023-05-06T23:33:00.467Z,100628.25
2023-05-06T23:38:02.870Z,100650.56
2023-05-06T23:43:07.549Z,100631.47
2023-05-06T23:48:09.860Z,100676.38
2023-05-06T23:53:12.330Z,100663.56
2023-05-06T23:58:14.854Z,100660.78
